createdAt,value
2023-06-20T00:01:12.062Z,14.57
2023-06-20T00:03:40.031Z,14.33
2023-06-20T00:06:07.880Z,16.63
2023-06-20T00:08:35.725Z,15.20
2023-06-20T00:11:05.015Z,16.13
2023-06-20T00:13:32.868Z,15.67
2023-06-20T00:16:02.221Z,14.87
2023-06-20T00:18:30.696Z,15.13
2023-06-20T00:20:58.618Z,15.27
2023-06-20T00:23:26.507Z,14.90
2023-06-20T00:25:54.394Z,15.77
2023-06-20T00:28:23.631Z,15.23
2023-06-20T00:30:51.756Z,15.37
2023-06-20T00:33:19.920Z,15.43
2023-06-20T00:35:47.798Z,15.30
2023-06-20T00:38:15.635Z,15.23
2023-06-20T00:40:43.477Z,15.03
2023-06-20T00:43:13.442Z,15.17
2023-06-20T00:45:43.047Z,14.67
2023-06-20T00:48:11.018Z,14.93
2023-06-20T00:50:38.974Z,14.67
2023-06-20T00:53:07.750Z,13.83
2023-06-20T00:55:36.555Z,14.20
2023-06-20T00:58:05.945Z,13.13
2023-06-20T01:00:35.300Z,13.97
2023-06-20T01:03:08.257Z,14.20
2023-06-20T01:05:37.081Z,13.83
2023-06-20T01:08:13.884Z,14.43
2023-06-20T01:10:50.391Z,13.13
2023-06-20T01:13:25.799Z,13.83
2023-06-20T01:16:01.144Z,14.27
2023-06-20T01:18:37.305Z,13.70
2023-06-20T01:21:09.518Z,14.23
2023-06-20T01:23:42.574Z,13.53
2023-06-20T01:26:13.029Z,13.90
2023-06-20T01:28:44.192Z,14.40
2023-06-20T01:31:13.330Z,14.67
2023-06-20T01:33:50.787Z,14.77
2023-06-20T01:36:21.240Z,14.87
2023-06-20T01:38:52.387Z,14.40
2023-06-20T01:41:22.955Z,14.63
2023-06-20T01:43:52.332Z,14.97
2023-06-20T01:46:21.064Z,14.93
2023-06-20T01:48:50.090Z,15.10
2023-06-20T01:51:18.632Z,15.37
2023-06-20T01:53:47.045Z,14.70
2023-06-20T01:56:17.380Z,15.63
2023-06-20T01:58:45.352Z,14.87
2023-06-20T02:01:14.462Z,14.80
2023-06-20T02:03:43.340Z,15.40
2023-06-20T02:06:12.679Z,15.37
2023-06-20T02:08:41.225Z,16.20
2023-06-20T02:11:09.888Z,16.50
2023-06-20T02:13:39.340Z,16.23
2023-06-20T02:16:10.128Z,15.53
2023-06-20T02:18:38.042Z,16.07
2023-06-20T02:21:07.342Z,16.03
2023-06-20T02:23:36.471Z,16.13
2023-06-20T02:26:09.631Z,16.47
2023-06-20T02:28:41.334Z,16.20
2023-06-20T02:31:11.490Z,15.83
2023-06-20T02:33:40.706Z,17.33
2023-06-20T02:36:10.179Z,17.33
2023-06-20T02:38:38.645Z,17.67
2023-06-20T02:41:06.947Z,17.00
2023-06-20T02:43:35.372Z,17.13
2023-06-20T02:46:09.151Z,17.40
2023-06-20T02:48:42.557Z,17.57
2023-06-20T02:51:14.946Z,18.23
2023-06-20T02:53:47.002Z,20.23
2023-06-20T02:56:15.548Z,23.20
2023-06-20T02:58:46.521Z,22.73
2023-06-20T03:01:18.361Z,21.80
2023-06-20T03:03:47.296Z,23.50
2023-06-20T03:06:16.837Z,23.60
2023-06-20T03:08:50.905Z,23.57
2023-06-20T03:11:19.074Z,24.20
2023-06-20T03:13:47.017Z,23.57
2023-06-20T03:16:16.609Z,27.20
2023-06-20T03:18:44.525Z,26.10
2023-06-20T03:21:27.325Z,27.23
2023-06-20T03:23:56.458Z,27.33
2023-06-20T03:26:24.399Z,27.60
2023-06-20T03:28:52.385Z,28.83
2023-06-20T03:31:21.610Z,30.23
2023-06-20T03:33:49.847Z,29.97
2023-06-20T03:36:17.884Z,29.37
2023-06-20T03:38:45.807Z,30.60
2023-06-20T03:41:13.646Z,29.60
2023-06-20T03:43:41.535Z,29.50
2023-06-20T03:46:09.437Z,30.80
2023-06-20T03:48:38.750Z,33.07
2023-06-20T03:51:07.749Z,30.27
2023-06-20T03:53:35.620Z,29.43
2023-06-20T03:56:04.094Z,29.20
2023-06-20T03:58:32.110Z,29.10
2023-06-20T04:01:00.032Z,27.73
2023-06-20T04:03:30.281Z,27.30
2023-06-20T04:06:02.362Z,27.47
2023-06-20T04:08:30.614Z,26.17
2023-06-20T04:11:00.556Z,27.33
2023-06-20T04:13:28.823Z,26.83
2023-06-20T04:15:56.789Z,28.10
2023-06-20T04:18:24.695Z,26.67
2023-06-20T04:20:52.568Z,27.30
2023-06-20T04:23:21.760Z,26.20
2023-06-20T04:25:49.653Z,27.53
2023-06-20T04:28:18.605Z,26.97
2023-06-20T04:30:46.596Z,25.03
2023-06-20T04:33:14.627Z,24.30
2023-06-20T04:35:42.558Z,25.40
2023-06-20T04:38:10.620Z,23.50
2023-06-20T04:40:39.831Z,23.73
2023-06-20T04:43:07.702Z,23.80
2023-06-20T04:48:29.732Z,22.27
2023-06-20T04:50:57.868Z,24.10
2023-06-20T04:53:27.141Z,23.93
2023-06-20T04:55:56.390Z,23.40
2023-06-20T04:58:29.589Z,24.67
2023-06-20T05:00:57.826Z,24.70
2023-06-20T05:03:25.719Z,25.33
2023-06-20T05:05:54.122Z,25.73
2023-06-20T05:08:22.141Z,24.87
2023-06-20T05:10:50.158Z,25.23
2023-06-20T05:13:19.408Z,24.97
2023-06-20T05:15:47.468Z,25.87
2023-06-20T05:18:15.350Z,25.73
2023-06-20T05:20:43.283Z,25.23
2023-06-20T05:23:11.212Z,24.77
2023-06-20T05:25:39.247Z,26.07
2023-06-20T05:28:07.271Z,26.33
2023-06-20T05:30:36.700Z,25.37
2023-06-20T05:33:04.606Z,25.57
2023-06-20T05:35:32.518Z,24.73
2023-06-20T05:38:01.228Z,25.83
2023-06-20T05:40:29.221Z,25.83
2023-06-20T05:42:57.137Z,25.57
2023-06-20T05:45:25.017Z,26.23
2023-06-20T05:47:54.340Z,25.10
2023-06-20T05:50:24.047Z,25.10
2023-06-20T05:52:52.863Z,24.43
2023-06-20T05:55:22.011Z,24.27
2023-06-20T05:57:49.943Z,23.17
2023-06-20T06:00:19.038Z,22.07
2023-06-20T06:02:47.428Z,23.17
2023-06-20T06:05:16.841Z,24.97
2023-06-20T06:07:45.009Z,24.53
2023-06-20T06:10:13.157Z,24.70
2023-06-20T06:12:41.947Z,24.30
2023-06-20T06:15:11.183Z,23.33
2023-06-20T06:17:39.132Z,23.47
2023-06-20T06:20:13.152Z,22.93
2023-06-20T06:22:42.557Z,22.80
2023-06-20T06:25:11.142Z,21.10
2023-06-20T06:27:39.180Z,21.20
2023-06-20T06:30:10.118Z,20.60
2023-06-20T06:32:38.802Z,20.67
2023-06-20T06:35:07.973Z,20.63
2023-06-20T06:37:36.218Z,19.10
2023-06-20T06:40:07.621Z,18.97
2023-06-20T06:42:35.750Z,19.47
2023-06-20T06:45:04.601Z,19.00
2023-06-20T06:47:32.510Z,18.17
2023-06-20T06:50:00.584Z,18.40
2023-06-20T06:52:28.474Z,17.70
2023-06-20T06:54:56.985Z,17.77
2023-06-20T06:57:26.267Z,18.00
2023-06-20T06:59:54.285Z,17.17
2023-06-20T07:02:23.611Z,17.00
2023-06-20T07:04:51.539Z,15.80
2023-06-20T07:07:21.679Z,16.77
2023-06-20T07:09:49.505Z,14.73
2023-06-20T07:12:17.636Z,15.03
2023-06-20T07:14:47.178Z,15.30
2023-06-20T07:17:15.139Z,14.87
2023-06-20T07:19:43.073Z,13.27
2023-06-20T07:22:10.960Z,13.20
2023-06-20T07:24:40.142Z,13.50
2023-06-20T07:27:08.476Z,13.23
2023-06-20T07:29:36.476Z,14.17
2023-06-20T07:32:06.576Z,12.93
2023-06-20T07:34:34.779Z,11.63
2023-06-20T07:37:02.652Z,11.47
2023-06-20T07:42:26.316Z,12.07
2023-06-20T07:44:54.313Z,11.50
2023-06-20T07:47:23.611Z,12.57
2023-06-20T07:49:51.505Z,12.07
2023-06-20T07:52:19.396Z,11.50
2023-06-20T07:54:47.289Z,13.10
2023-06-20T07:57:15.351Z,11.93
2023-06-20T07:59:43.218Z,11.33
2023-06-20T08:02:11.085Z,11.83
2023-06-20T08:04:40.322Z,13.53
2023-06-20T08:07:08.830Z,12.73
2023-06-20T08:09:37.090Z,13.90
2023-06-20T08:12:05.693Z,12.43
2023-06-20T08:14:33.845Z,11.83
2023-06-20T08:17:01.815Z,11.93
2023-06-20T08:19:29.624Z,10.97
2023-06-20T08:21:58.870Z,11.57
2023-06-20T08:24:26.853Z,11.10
2023-06-20T08:26:54.809Z,10.03
2023-06-20T08:29:22.761Z,11.33
2023-06-20T08:31:50.723Z,12.60
2023-06-20T08:34:18.595Z,11.83
2023-06-20T08:36:46.423Z,11.30
2023-06-20T08:39:15.931Z,10.60
2023-06-20T08:41:43.837Z,10.00
2023-06-20T08:44:12.556Z,9.90
2023-06-20T08:46:40.492Z,9.67
2023-06-20T08:49:10.698Z,9.67
2023-06-20T08:51:40.842Z,8.70
2023-06-20T08:54:10.628Z,8.80
2023-06-20T08:56:40.360Z,9.20
2023-06-20T08:59:08.213Z,8.63
2023-06-20T09:01:36.809Z,8.50
2023-06-20T09:04:05.013Z,9.43
2023-06-20T09:06:33.803Z,8.70
2023-06-20T09:09:01.713Z,8.57
2023-06-20T09:11:29.578Z,8.50
2023-06-20T09:14:02.133Z,8.37
2023-06-20T09:16:30.326Z,8.17
2023-06-20T09:19:00.655Z,7.13
2023-06-20T09:21:28.799Z,7.60
2023-06-20T09:24:04.263Z,7.27
2023-06-20T09:26:33.225Z,7.13
2023-06-20T09:29:11.027Z,7.13
2023-06-20T09:31:42.829Z,6.80
2023-06-20T09:34:14.338Z,7.10
2023-06-20T09:36:42.458Z,6.77
2023-06-20T09:39:13.271Z,7.37
2023-06-20T09:41:47.964Z,7.00
2023-06-20T09:44:17.958Z,7.13
2023-06-20T09:46:46.377Z,6.43
2023-06-20T09:49:15.962Z,6.73
2023-06-20T09:51:46.444Z,5.97
2023-06-20T09:54:16.797Z,6.40
2023-06-20T09:56:48.668Z,6.10
2023-06-20T09:59:18.502Z,5.87
2023-06-20T10:01:46.960Z,6.10
2023-06-20T10:04:15.541Z,6.07
2023-06-20T10:06:43.605Z,5.57
2023-06-20T10:09:12.108Z,6.03
2023-06-20T10:11:40.573Z,5.83
2023-06-20T10:14:09.054Z,5.63
2023-06-20T10:16:38.409Z,5.80
2023-06-20T10:19:19.191Z,6.03
2023-06-20T10:21:58.358Z,6.00
2023-06-20T10:24:31.985Z,6.47
2023-06-20T10:27:01.897Z,5.80
2023-06-20T10:29:30.406Z,6.60
2023-06-20T10:32:09.699Z,6.63
2023-06-20T10:34:38.924Z,5.67
2023-06-20T10:37:17.648Z,6.37
2023-06-20T10:39:55.713Z,6.23
2023-06-20T10:42:33.996Z,6.00
2023-06-20T10:45:27.044Z,6.67
2023-06-20T10:47:57.836Z,6.27
2023-06-20T10:50:25.974Z,6.37
2023-06-20T10:52:54.116Z,6.23
2023-06-20T10:55:24.960Z,5.83
2023-06-20T10:57:53.350Z,6.30
2023-06-20T11:00:23.899Z,6.40
2023-06-20T11:02:53.494Z,5.83
2023-06-20T11:05:26.309Z,6.17
2023-06-20T11:07:55.396Z,6.57
2023-06-20T11:10:24.152Z,5.90
2023-06-20T11:12:52.171Z,5.83
2023-06-20T11:15:30.230Z,6.07
2023-06-20T11:17:58.894Z,5.80
2023-06-20T11:20:38.723Z,5.57
2023-06-20T11:23:08.058Z,6.53
2023-06-20T11:25:37.417Z,6.20
2023-06-20T11:28:06.829Z,6.50
2023-06-20T11:30:36.603Z,6.40
2023-06-20T11:33:06.682Z,6.00
2023-06-20T11:35:50.962Z,6.13
2023-06-20T11:38:21.436Z,5.67
2023-06-20T11:40:52.305Z,6.20
2023-06-20T11:43:27.539Z,6.40
2023-06-20T11:48:50.315Z,6.77
2023-06-20T11:51:24.935Z,6.77
2023-06-20T11:54:01.907Z,6.40
2023-06-20T11:56:29.913Z,6.50
2023-06-20T11:58:58.070Z,6.70
2023-06-20T12:01:26.425Z,6.20
2023-06-20T12:04:04.792Z,7.27
2023-06-20T12:06:35.008Z,6.50
2023-06-20T12:09:09.363Z,6.60
2023-06-20T12:11:38.231Z,6.53
2023-06-20T12:14:07.039Z,6.37
2023-06-20T12:16:34.931Z,6.73
2023-06-20T12:19:02.915Z,6.93
2023-06-20T12:21:30.795Z,6.60
2023-06-20T12:24:00.288Z,6.67
2023-06-20T12:26:28.234Z,6.53
2023-06-20T12:28:56.074Z,6.13
2023-06-20T12:31:23.970Z,6.60
2023-06-20T12:33:52.267Z,6.73
2023-06-20T12:36:20.486Z,7.30
2023-06-20T12:38:48.396Z,6.73
2023-06-20T12:41:18.468Z,6.43
2023-06-20T12:43:46.336Z,6.87
2023-06-20T12:48:50.163Z,7.43
2023-06-20T12:51:18.462Z,7.00
2023-06-20T12:53:46.385Z,7.23
2023-06-20T12:56:14.557Z,7.00
2023-06-20T12:58:43.856Z,6.67
2023-06-20T13:01:12.075Z,7.00
2023-06-20T13:03:41.383Z,6.73
2023-06-20T13:06:11.966Z,6.40
2023-06-20T13:08:41.626Z,6.47
2023-06-20T13:11:09.506Z,6.90
2023-06-20T13:13:38.519Z,6.77
2023-06-20T13:16:08.846Z,6.23
2023-06-20T13:18:39.182Z,6.53
2023-06-20T13:21:07.512Z,6.67
2023-06-20T13:23:35.599Z,6.30
2023-06-20T13:26:03.663Z,6.90
2023-06-20T13:28:31.906Z,6.53
2023-06-20T13:31:00.061Z,6.37
2023-06-20T13:33:29.340Z,7.07
2023-06-20T13:35:57.277Z,7.00
2023-06-20T13:38:25.216Z,6.30
2023-06-20T13:40:53.134Z,5.87
2023-06-20T13:43:21.203Z,6.43
2023-06-20T13:45:52.017Z,5.97
2023-06-20T13:48:21.383Z,6.73
2023-06-20T13:50:50.613Z,6.03
2023-06-20T13:53:18.704Z,5.77
2023-06-20T13:55:47.280Z,6.33
2023-06-20T13:58:15.192Z,5.90
2023-06-20T14:00:43.316Z,6.00
2023-06-20T14:03:11.285Z,6.07
2023-06-20T14:05:39.228Z,5.93
2023-06-20T14:08:08.762Z,6.20
2023-06-20T14:10:36.687Z,6.30
2023-06-20T14:13:04.549Z,6.20
2023-06-20T14:15:32.432Z,6.43
2023-06-20T14:18:00.302Z,6.20
2023-06-20T14:20:28.421Z,6.00
2023-06-20T14:22:56.494Z,6.10
2023-06-20T14:25:25.721Z,6.23
2023-06-20T14:27:53.686Z,6.53
2023-06-20T14:30:21.719Z,6.27
2023-06-20T14:32:49.949Z,6.10
2023-06-20T14:35:17.839Z,5.83
2023-06-20T14:37:45.747Z,6.40
2023-06-20T14:40:14.209Z,6.10
2023-06-20T14:42:43.400Z,6.43
2023-06-20T14:45:12.031Z,6.40
2023-06-20T14:47:40.113Z,5.80
2023-06-20T14:50:08.855Z,6.13
2023-06-20T14:52:36.796Z,6.60
2023-06-20T14:55:04.914Z,5.93
2023-06-20T14:57:32.853Z,6.37
2023-06-20T15:00:02.139Z,6.83
2023-06-20T15:02:30.362Z,6.73
2023-06-20T15:04:58.280Z,6.37
2023-06-20T15:07:26.217Z,6.40
2023-06-20T15:09:54.841Z,5.90
2023-06-20T15:12:22.697Z,6.50
2023-06-20T15:14:50.535Z,6.63
2023-06-20T15:17:19.760Z,6.37
2023-06-20T15:19:47.584Z,5.90
2023-06-20T15:22:32.768Z,6.13
2023-06-20T15:25:12.902Z,6.30
2023-06-20T15:27:47.377Z,6.60
2023-06-20T15:30:25.450Z,6.27
2023-06-20T15:32:55.006Z,6.70
2023-06-20T15:35:22.941Z,6.33
2023-06-20T15:37:50.769Z,6.70
2023-06-20T15:40:22.617Z,6.50
2023-06-20T15:42:52.261Z,7.07
2023-06-20T15:45:21.354Z,7.30
2023-06-20T15:47:49.460Z,7.90
2023-06-20T15:50:18.971Z,7.13
2023-06-20T15:52:46.821Z,7.00
2023-06-20T15:55:14.744Z,6.43
2023-06-20T15:57:42.737Z,6.43
2023-06-20T16:00:11.602Z,6.67
2023-06-20T16:02:39.726Z,6.47
2023-06-20T16:05:10.129Z,6.23
2023-06-20T16:07:40.162Z,6.20
2023-06-20T16:10:09.164Z,6.00
2023-06-20T16:12:37.028Z,6.50
2023-06-20T16:15:06.317Z,6.60
2023-06-20T16:17:34.213Z,5.90
2023-06-20T16:20:02.211Z,6.43
2023-06-20T16:22:30.122Z,6.00
2023-06-20T16:24:59.736Z,6.60
2023-06-20T16:27:27.685Z,6.30
2023-06-20T16:29:55.526Z,6.13
2023-06-20T16:32:23.496Z,5.80
2023-06-20T16:34:51.414Z,6.33
2023-06-20T16:37:19.500Z,6.17
2023-06-20T16:39:47.346Z,6.13
2023-06-20T16:42:17.950Z,6.37
2023-06-20T16:44:45.846Z,6.30
2023-06-20T16:47:15.180Z,6.43
2023-06-20T16:49:43.053Z,6.20
2023-06-20T16:52:11.106Z,6.50
2023-06-20T16:54:38.989Z,6.53
2023-06-20T16:57:08.267Z,6.93
2023-06-20T16:59:37.636Z,6.80
2023-06-20T17:02:06.231Z,6.40
2023-06-20T17:04:34.100Z,6.70
2023-06-20T17:07:01.937Z,7.10
2023-06-20T17:09:29.783Z,6.13
2023-06-20T17:11:57.637Z,6.90
2023-06-20T17:14:25.946Z,6.97
2023-06-20T17:16:57.689Z,7.20
2023-06-20T17:19:25.943Z,6.90
2023-06-20T17:22:02.552Z,6.73
2023-06-20T17:24:38.763Z,6.40
2023-06-20T17:27:07.373Z,6.23
2023-06-20T17:29:35.232Z,6.97
2023-06-20T17:32:05.223Z,6.67
2023-06-20T17:34:33.116Z,6.60
2023-06-20T17:37:00.987Z,6.47
2023-06-20T17:39:28.805Z,7.10
2023-06-20T17:41:56.971Z,6.50
2023-06-20T17:44:24.849Z,6.97
2023-06-20T17:46:56.913Z,7.30
2023-06-20T17:49:26.450Z,7.50
2023-06-20T17:51:54.390Z,7.60
2023-06-20T17:54:22.302Z,7.70
2023-06-20T17:56:50.180Z,7.73
2023-06-20T17:59:18.114Z,8.17
2023-06-20T18:01:46.096Z,8.70
2023-06-20T18:04:15.648Z,7.70
2023-06-20T18:06:44.941Z,8.37
2023-06-20T18:09:12.795Z,7.47
2023-06-20T18:11:40.680Z,7.10
2023-06-20T18:14:08.632Z,7.40
2023-06-20T18:16:36.584Z,7.43
2023-06-20T18:19:04.518Z,7.13
2023-06-20T18:21:33.878Z,7.30
2023-06-20T18:24:03.113Z,7.33
2023-06-20T18:26:31.012Z,7.20
2023-06-20T18:28:58.887Z,7.73
2023-06-20T18:31:26.748Z,7.43
2023-06-20T18:33:54.717Z,7.60
2023-06-20T18:36:22.685Z,7.40
2023-06-20T18:38:50.582Z,7.57
2023-06-20T18:41:19.784Z,7.33
2023-06-20T18:43:47.723Z,7.67
2023-06-20T18:46:16.122Z,7.43
2023-06-20T18:48:44.027Z,7.80
2023-06-20T18:51:12.764Z,7.67
2023-06-20T18:53:40.666Z,7.63
2023-06-20T18:56:08.521Z,7.47
2023-06-20T18:58:37.967Z,7.67
2023-06-20T19:01:05.927Z,8.00
2023-06-20T19:03:35.139Z,8.17
2023-06-20T19:06:06.275Z,7.57
2023-06-20T19:08:34.373Z,7.83
2023-06-20T19:11:02.320Z,8.60
2023-06-20T19:13:30.504Z,8.10
2023-06-20T19:15:59.862Z,7.80
2023-06-20T19:18:27.765Z,7.63
2023-06-20T19:20:55.855Z,8.03
2023-06-20T19:23:23.864Z,7.53
2023-06-20T19:25:51.801Z,7.33
2023-06-20T19:28:19.652Z,7.60
2023-06-20T19:30:47.583Z,7.87
2023-06-20T19:33:16.872Z,7.80
2023-06-20T19:35:44.734Z,7.97
2023-06-20T19:38:12.643Z,7.73
2023-06-20T19:40:41.669Z,7.90
2023-06-20T19:43:09.712Z,7.47
2023-06-20T19:45:39.983Z,7.53
2023-06-20T19:48:09.218Z,7.50
2023-06-20T19:50:38.465Z,7.53
2023-06-20T19:53:06.320Z,7.83
2023-06-20T19:55:34.246Z,7.03
2023-06-20T19:58:03.869Z,7.70
2023-06-20T20:00:32.032Z,7.03
2023-06-20T20:03:00.435Z,7.70
2023-06-20T20:05:28.343Z,7.40
2023-06-20T20:07:57.537Z,7.13
2023-06-20T20:10:25.586Z,7.10
2023-06-20T20:12:53.706Z,7.73
2023-06-20T20:15:21.728Z,7.57
2023-06-20T20:17:49.711Z,7.80
2023-06-20T20:20:17.644Z,7.67
2023-06-20T20:22:45.530Z,7.97
2023-06-20T20:25:14.899Z,7.70
2023-06-20T20:27:42.879Z,7.87
2023-06-20T20:30:11.832Z,7.87
2023-06-20T20:32:43.273Z,7.60
2023-06-20T20:35:11.493Z,7.10
2023-06-20T20:37:39.517Z,7.17
2023-06-20T20:40:12.754Z,7.30
2023-06-20T20:42:46.286Z,6.90
2023-06-20T20:45:14.197Z,6.87
2023-06-20T20:47:42.150Z,7.60
2023-06-20T20:50:10.841Z,7.70
2023-06-20T20:52:38.914Z,7.40
2023-06-20T20:55:07.846Z,7.80
2023-06-20T20:57:35.691Z,7.67
2023-06-20T21:00:10.674Z,7.50
2023-06-20T21:02:39.081Z,7.30
2023-06-20T21:05:07.092Z,8.27
2023-06-20T21:07:35.005Z,7.90
2023-06-20T21:10:02.924Z,8.10
2023-06-20T21:12:30.755Z,8.67
2023-06-20T21:14:58.631Z,8.53
2023-06-20T21:17:28.397Z,8.27
2023-06-20T21:19:57.637Z,8.00
2023-06-20T21:22:25.546Z,7.57
2023-06-20T21:24:53.468Z,7.90
2023-06-20T21:27:22.426Z,8.00
2023-06-20T21:29:50.360Z,7.73
2023-06-20T21:32:18.234Z,7.40
2023-06-20T21:34:47.898Z,8.33
2023-06-20T21:37:16.247Z,7.80
2023-06-20T21:39:44.208Z,8.67
2023-06-20T21:42:12.163Z,8.10
2023-06-20T21:44:40.004Z,8.60
2023-06-20T21:47:08.148Z,8.43
2023-06-20T21:49:36.048Z,8.47
2023-06-20T21:52:05.971Z,8.90
2023-06-20T21:54:34.055Z,9.13
2023-06-20T21:57:01.978Z,8.47
2023-06-20T21:59:30.058Z,8.30
2023-06-20T22:01:57.954Z,7.97
2023-06-20T22:04:25.800Z,8.63
2023-06-20T22:06:53.740Z,8.17
2023-06-20T22:09:22.996Z,8.40
2023-06-20T22:11:51.204Z,8.17
2023-06-20T22:14:19.137Z,8.30
2023-06-20T22:16:47.080Z,8.63
2023-06-20T22:19:16.962Z,8.03
2023-06-20T22:21:45.117Z,7.73
2023-06-20T22:24:13.153Z,8.80
2023-06-20T22:26:43.231Z,8.87
2023-06-20T22:29:11.104Z,9.30
2023-06-20T22:31:40.860Z,9.37
2023-06-20T22:34:08.815Z,8.67
2023-06-20T22:36:36.758Z,10.20
2023-06-20T22:39:05.498Z,9.60
2023-06-20T22:41:33.673Z,9.77
2023-06-20T22:44:02.956Z,9.83
2023-06-20T22:46:30.978Z,10.57
2023-06-20T22:49:00.897Z,10.10
2023-06-20T22:51:32.046Z,9.63
2023-06-20T22:54:00.544Z,9.73
2023-06-20T22:56:28.423Z,11.13
2023-06-20T22:58:56.435Z,10.93
2023-06-20T23:01:25.698Z,11.47
2023-06-20T23:03:53.655Z,11.60
2023-06-20T23:06:21.584Z,12.17
2023-06-20T23:08:49.477Z,11.70
2023-06-20T23:11:17.375Z,12.10
2023-06-20T23:13:45.285Z,11.67
2023-06-20T23:16:13.150Z,11.93
2023-06-20T23:18:42.567Z,12.07
2023-06-20T23:21:10.452Z,12.00
2023-06-20T23:23:41.265Z,11.87
2023-06-20T23:26:09.394Z,11.57
2023-06-20T23:28:37.266Z,12.50
2023-06-20T23:31:05.451Z,12.60
2023-06-20T23:33:33.644Z,13.23
2023-06-20T23:36:03.049Z,12.77
2023-06-20T23:38:31.215Z,12.40
2023-06-20T23:40:59.648Z,12.57
2023-06-20T23:43:27.754Z,12.60
2023-06-20T23:45:59.649Z,12.83
2023-06-20T23:48:27.528Z,13.13
2023-06-20T23:50:55.533Z,13.30
2023-06-20T23:53:24.748Z,14.17
2023-06-20T23:55:52.678Z,14.10
2023-06-20T23:58:20.621Z,14.33
